Time;durP1;ratioP1;P1;durP2;ratioP2;P2;SDS_P1;SDS_P2;PMS_P1;PMS_P2;Temp;Humidity;BMP_temperature;BMP_pressure;BME280_temperature;BME280_humidity;BME280_pressure;Samples;Min_cycle;Max_cycle;Signal;HPM_P1;HPM_P2
2022/07/15 00:01:49;;;;;;;1.33;1.03;;;;;;;18.15;42.66;99211.56;5090595;28;39938;-75
2022/07/15 00:04:18;;;;;;;3.07;0.70;;;;;;;18.08;42.14;99215.75;5073908;28;42219;-74
2022/07/15 00:06:45;;;;;;;1.37;0.67;;;;;;;18.03;42.07;99217.16;5090273;28;43644;-73
2022/07/15 00:09:13;;;;;;;2.10;1.00;;;;;;;17.97;42.05;99218.53;5090512;28;41047;-72
2022/07/15 00:11:40;;;;;;;1.47;0.87;;;;;;;17.92;41.86;99221.63;5091820;28;40173;-74
2022/07/15 00:14:08;;;;;;;1.00;0.90;;;;;;;17.85;41.91;99223.13;5092271;28;41577;-74
2022/07/15 00:16:36;;;;;;;0.90;0.50;;;;;;;17.80;42.49;99216.47;5089699;28;42925;-75
2022/07/15 00:19:03;;;;;;;0.97;0.60;;;;;;;17.72;42.79;99210.91;5073505;28;41225;-76
2022/07/15 00:21:33;;;;;;;1.60;0.60;;;;;;;17.66;42.64;99214.13;5091625;28;41002;-75
2022/07/15 00:24:00;;;;;;;0.70;0.70;;;;;;;17.60;42.69;99216.31;5073378;28;40681;-74
2022/07/15 00:26:28;;;;;;;0.80;0.60;;;;;;;17.53;42.57;99209.78;5090417;28;41062;-75
2022/07/15 00:28:55;;;;;;;0.50;0.50;;;;;;;17.47;42.83;99212.13;5090336;28;43185;-74
2022/07/15 00:31:23;;;;;;;0.53;0.53;;;;;;;17.42;43.14;99206.34;5090400;28;39997;-75
2022/07/15 00:33:51;;;;;;;0.67;0.63;;;;;;;17.36;43.06;99210.38;5090218;28;41828;-75
2022/07/15 00:36:18;;;;;;;2.33;0.70;;;;;;;17.32;44.25;99205.41;5091463;28;42892;-75
2022/07/15 00:38:48;;;;;;;1.23;0.80;;;;;;;17.28;45.77;99204.81;5090110;28;42301;-75
2022/07/15 00:41:15;;;;;;;1.13;0.70;;;;;;;17.26;46.07;99201.44;5073128;28;38766;-73
2022/07/15 00:43:43;;;;;;;1.53;0.90;;;;;;;17.24;45.40;99203.38;5090200;28;41881;-72
2022/07/15 00:46:11;;;;;;;1.67;0.63;;;;;;;17.21;45.54;99204.47;5089995;28;44030;-75
2022/07/15 00:48:39;;;;;;;0.97;0.70;;;;;;;17.19;45.76;99200.22;5091088;28;43163;-74
2022/07/15 00:51:07;;;;;;;1.40;0.60;;;;;;;17.15;45.43;99205.00;5090225;28;39905;-75
2022/07/15 00:53:36;;;;;;;0.80;0.67;;;;;;;17.12;44.77;99204.41;5089028;28;41622;-75
2022/07/15 00:56:10;;;;;;;1.00;0.80;;;;;;;17.06;44.87;99205.75;5089693;28;42816;-73
2022/07/15 00:58:41;;;;;;;1.83;1.00;;;;;;;17.01;44.85;99199.09;5089742;28;41098;-76
2022/07/15 01:01:09;;;;;;;1.03;0.60;;;;;;;16.94;44.99;99200.59;5075035;28;38907;-72
2022/07/15 01:03:38;;;;;;;0.97;0.70;;;;;;;16.86;45.06;99204.75;5076350;28;40497;-75
2022/07/15 01:06:06;;;;;;;0.93;0.80;;;;;;;16.82;45.27;99202.44;5093133;28;43232;-73
2022/07/15 01:08:34;;;;;;;0.70;0.60;;;;;;;16.76;45.33;99209.16;5093152;28;41152;-73
2022/07/15 01:11:02;;;;;;;1.03;0.80;;;;;;;16.70;45.63;99204.31;5093522;28;40890;-75
2022/07/15 01:13:31;;;;;;;0.77;0.63;;;;;;;16.64;46.43;99201.31;5076507;28;40678;-73
2022/07/15 01:15:59;;;;;;;0.87;0.60;;;;;;;16.60;46.52;99197.97;5076413;28;42007;-73
2022/07/15 01:18:27;;;;;;;0.67;0.60;;;;;;;16.57;46.70;99198.22;5093137;28;42964;-73
2022/07/15 01:20:57;;;;;;;1.73;0.50;;;;;;;16.55;46.52;99204.69;5093304;28;40192;-76
2022/07/15 01:23:25;;;;;;;1.47;0.73;;;;;;;16.51;46.25;99198.75;5075834;28;42753;-74
2022/07/15 01:26:19;;;;;;;0.97;0.67;;;;;;;16.46;46.68;99203.59;5093073;28;43688;-74
2022/07/15 01:28:49;;;;;;;2.90;0.93;;;;;;;16.39;46.23;99199.75;5093056;28;43260;-72
2022/07/15 01:31:18;;;;;;;0.80;0.70;;;;;;;16.33;46.65;99205.56;5093133;28;40110;-74
2022/07/15 01:33:47;;;;;;;0.87;0.50;;;;;;;16.26;46.85;99204.38;5092838;28;41712;-74
2022/07/15 01:36:16;;;;;;;2.23;0.73;;;;;;;16.21;47.03;99203.88;5092777;28;44071;-75
2022/07/15 01:38:51;;;;;;;3.03;1.00;;;;;;;16.13;47.10;99205.34;5092717;28;42327;-73
2022/07/15 01:41:22;;;;;;;1.00;0.60;;;;;;;16.07;46.87;99205.81;5076038;28;38858;-72
2022/07/15 01:43:50;;;;;;;0.67;0.60;;;;;;;16.03;47.23;99203.53;5075717;28;41718;-73
2022/07/15 01:46:18;;;;;;;0.80;0.60;;;;;;;15.99;47.68;99202.91;5075886;28;41242;-74
2022/07/15 01:51:42;;;;;;;0.77;0.73;;;;;;;15.89;47.50;99196.59;5086086;28;40011;-73
2022/07/15 01:54:09;;;;;;;2.00;0.80;;;;;;;15.84;47.35;99193.44;5091705;28;41814;-72
2022/07/15 01:56:37;;;;;;;0.60;0.57;;;;;;;15.80;47.62;99197.34;5092711;28;42691;-72
2022/07/15 01:59:06;;;;;;;1.13;0.73;;;;;;;15.69;48.39;99182.16;5092574;28;43205;-72
2022/07/15 02:01:34;;;;;;;1.13;0.60;;;;;;;15.74;48.88;99192.47;5092221;28;40807;-74
2022/07/15 02:04:07;;;;;;;1.00;0.60;;;;;;;15.71;48.86;99190.03;5089870;28;41803;-74
2022/07/15 02:06:35;;;;;;;1.13;0.77;;;;;;;15.57;48.96;99172.44;5092348;28;44070;-71
2022/07/15 02:09:04;;;;;;;1.20;0.60;;;;;;;15.65;48.64;99193.19;5092130;28;41961;-75
2022/07/15 02:11:35;;;;;;;1.60;0.60;;;;;;;15.62;48.69;99198.75;5074891;28;41006;-73
2022/07/15 02:14:03;;;;;;;1.47;0.80;;;;;;;15.57;48.30;99195.63;5092400;28;41844;-75
2022/07/15 02:16:33;;;;;;;1.17;0.80;;;;;;;15.51;48.53;99185.38;5075502;28;41311;-74
2022/07/15 02:19:04;;;;;;;0.87;0.57;;;;;;;15.49;48.77;99192.63;5089817;28;42866;-75
2022/07/15 02:21:32;;;;;;;1.17;0.60;;;;;;;15.42;48.65;99185.13;5092201;28;39691;-74
2022/07/15 02:24:01;;;;;;;0.77;0.60;;;;;;;15.37;48.94;99189.94;5092232;28;42754;-75
2022/07/15 02:26:31;;;;;;;0.60;0.60;;;;;;;15.31;48.80;99193.09;5092254;28;42987;-73
2022/07/15 02:28:59;;;;;;;1.33;0.80;;;;;;;15.25;49.23;99185.56;5091802;28;41316;-73
2022/07/15 02:31:29;;;;;;;0.97;0.60;;;;;;;15.20;49.64;99186.88;5075560;28;38303;-75
2022/07/15 02:33:57;;;;;;;0.90;0.80;;;;;;;15.14;49.83;99187.34;5091994;28;41801;-76
2022/07/15 02:36:29;;;;;;;0.80;0.80;;;;;;;15.02;49.57;99178.44;5088815;28;42706;-74
2022/07/15 02:38:58;;;;;;;1.77;0.73;;;;;;;14.97;49.70;99176.13;5091512;28;42146;-73
2022/07/15 02:41:25;;;;;;;1.23;0.70;;;;;;;14.97;49.72;99184.13;5092035;28;39965;-75
2022/07/15 02:43:59;;;;;;;0.60;0.60;;;;;;;14.91;49.68;99191.75;5074844;28;40820;-75
2022/07/15 02:46:27;;;;;;;1.10;0.80;;;;;;;14.88;50.04;99181.31;5088748;28;42709;-75
2022/07/15 02:48:55;;;;;;;0.50;0.50;;;;;;;14.83;50.43;99188.81;5091755;28;42259;-74
2022/07/15 02:51:24;;;;;;;1.37;0.60;;;;;;;14.76;50.54;99188.41;5091709;28;39696;-73
2022/07/15 02:53:51;;;;;;;1.53;0.70;;;;;;;14.72;50.54;99194.91;5092905;28;41583;-73
2022/07/15 02:56:23;;;;;;;1.00;0.70;;;;;;;14.68;50.66;99196.13;5088725;28;43082;-74
2022/07/15 02:58:51;;;;;;;1.63;0.60;;;;;;;14.64;50.94;99203.50;5091484;28;42311;-75
2022/07/15 03:01:20;;;;;;;1.43;0.73;;;;;;;14.58;51.18;99201.28;5091512;28;39951;-73
2022/07/15 03:03:49;;;;;;;1.70;0.70;;;;;;;14.55;51.56;99201.50;5088544;28;42735;-72
2022/07/15 03:06:22;;;;;;;1.37;0.83;;;;;;;14.50;51.46;99203.66;5088382;28;42767;-73
2022/07/15 03:08:50;;;;;;;2.60;0.90;;;;;;;14.46;51.41;99202.19;5073479;28;41155;-74
2022/07/15 03:11:20;;;;;;;0.80;0.73;;;;;;;14.42;51.65;99206.03;5091493;28;39910;-74
2022/07/15 03:13:49;;;;;;;1.10;0.80;;;;;;;14.38;51.68;99209.84;5091231;28;41693;-74
2022/07/15 03:16:17;;;;;;;1.57;0.80;;;;;;;14.36;51.33;99217.09;5091439;28;42944;-75
2022/07/15 03:18:49;;;;;;;1.00;0.60;;;;;;;14.32;51.62;99216.47;5074186;28;41156;-74
2022/07/15 03:21:18;;;;;;;1.70;0.80;;;;;;;14.29;51.66;99215.84;5091237;28;40489;-74
2022/07/15 03:23:49;;;;;;;0.60;0.60;;;;;;;14.28;51.45;99216.78;5087240;28;42761;-73
2022/07/15 03:26:16;;;;;;;0.87;0.80;;;;;;;14.25;51.51;99219.66;5091113;28;41761;-74
2022/07/15 03:28:45;;;;;;;1.17;0.70;;;;;;;14.22;51.75;99223.41;5074156;28;44076;-73
2022/07/15 03:31:12;;;;;;;0.67;0.67;;;;;;;14.20;51.90;99224.50;5074170;28;39251;-74
2022/07/15 03:33:40;;;;;;;1.43;0.80;;;;;;;14.18;52.27;99218.41;5091115;28;42932;-73
2022/07/15 03:36:11;;;;;;;1.30;0.80;;;;;;;14.17;52.04;99230.88;5090925;28;42689;-74
2022/07/15 03:38:39;;;;;;;0.50;0.50;;;;;;;14.15;52.43;99231.94;5074016;28;41085;-72
2022/07/15 03:41:06;;;;;;;1.33;1.10;;;;;;;14.14;52.39;99230.25;5091042;28;40089;-72
2022/07/15 03:43:34;;;;;;;1.03;0.70;;;;;;;14.13;52.27;99239.19;5091077;28;42740;-73
2022/07/15 03:46:02;;;;;;;1.20;1.10;;;;;;;14.04;52.70;99222.06;5090624;28;43518;-74
2022/07/15 03:48:33;;;;;;;0.70;0.70;;;;;;;14.12;52.88;99237.47;5074039;28;42595;-74
2022/07/15 03:51:01;;;;;;;1.10;0.80;;;;;;;14.13;52.35;99244.50;5090540;28;41034;-74
2022/07/15 03:53:30;;;;;;;1.60;0.87;;;;;;;14.13;52.38;99244.50;5090981;28;41818;-74
2022/07/15 03:55:58;;;;;;;0.70;0.70;;;;;;;14.14;52.91;99248.88;5073668;28;41920;-72
2022/07/15 03:58:25;;;;;;;0.73;0.70;;;;;;;14.13;53.28;99247.19;5090968;28;42303;-73
2022/07/15 04:00:53;;;;;;;0.80;0.77;;;;;;;14.14;53.19;99252.41;5073133;28;39620;-74
2022/07/15 04:03:21;;;;;;;3.27;0.80;;;;;;;14.16;53.06;99257.63;5090747;28;41725;-75
2022/07/15 04:05:48;;;;;;;0.73;0.73;;;;;;;14.20;53.19;99253.78;5090414;28;42641;-75
2022/07/15 04:08:18;;;;;;;2.10;0.97;;;;;;;14.21;53.08;99248.38;5090578;28;43139;-75
2022/07/15 04:10:48;;;;;;;0.80;0.70;;;;;;;14.29;52.58;99259.31;5091513;28;40000;-72
2022/07/15 04:13:18;;;;;;;2.20;0.90;;;;;;;14.35;52.58;99252.69;5090774;28;43033;-75
2022/07/15 04:15:47;;;;;;;1.10;1.00;;;;;;;14.45;52.18;99264.44;5073941;28;41733;-73
2022/07/15 04:18:15;;;;;;;1.57;0.70;;;;;;;14.53;52.11;99262.06;5073926;28;41385;-73
2022/07/15 04:20:43;;;;;;;1.00;0.90;;;;;;;14.61;51.97;99262.34;5090883;28;40897;-75
2022/07/15 04:23:10;;;;;;;1.10;0.80;;;;;;;14.70;52.61;99264.38;5090806;28;40968;-78
2022/07/15 04:25:39;;;;;;;1.57;0.83;;;;;;;14.79;53.18;99261.97;5090871;28;42744;-77
2022/07/15 04:28:09;;;;;;;0.70;0.70;;;;;;;14.86;53.60;99263.22;5090293;28;42108;-74
2022/07/15 04:30:36;;;;;;;1.20;1.10;;;;;;;14.92;53.62;99263.63;5073623;28;39096;-77
2022/07/15 04:33:04;;;;;;;1.30;0.80;;;;;;;14.97;53.41;99272.13;5090689;28;42352;-71
2022/07/15 04:35:34;;;;;;;0.77;0.70;;;;;;;15.03;53.33;99276.19;5093274;28;42731;-76
2022/07/15 04:38:05;;;;;;;1.10;1.00;;;;;;;15.09;53.01;99281.91;5077477;28;41196;-75
2022/07/15 04:40:34;;;;;;;0.70;0.70;;;;;;;15.17;52.92;99277.81;5077392;28;39734;-73
2022/07/15 04:43:05;;;;;;;1.20;0.90;;;;;;;15.22;52.36;99281.84;5091480;28;41858;-75
2022/07/15 04:45:35;;;;;;;1.17;0.70;;;;;;;15.28;53.50;99280.53;5094327;28;42584;-72
2022/07/15 04:50:45;;;;;;;1.00;0.80;;;;;;;15.33;53.93;99275.72;5077193;28;42229;-75
2022/07/15 04:50:53;;;;;;;1.00;0.90;;;;;;;15.38;52.93;99277.06;5076907;28;39935;-73
2022/07/15 04:53:26;;;;;;;2.10;1.07;;;;;;;15.50;53.33;99271.75;5091044;28;42507;-73
2022/07/15 04:55:54;;;;;;;1.00;0.90;;;;;;;15.62;53.54;99273.53;5076988;28;43259;-73
2022/07/15 04:58:22;;;;;;;1.23;1.10;;;;;;;15.74;53.38;99277.91;5093780;28;42491;-76
2022/07/15 05:00:52;;;;;;;2.63;1.07;;;;;;;15.87;52.79;99278.69;5093492;28;39403;-77
2022/07/15 05:03:21;;;;;;;2.83;1.17;;;;;;;16.03;52.33;99284.53;5093792;28;41790;-79
2022/07/15 05:05:49;;;;;;;1.23;1.07;;;;;;;16.13;51.86;99273.97;5092859;28;43844;-79
2022/07/15 05:08:20;;;;;;;0.90;0.90;;;;;;;16.27;52.04;99286.25;5076981;28;43065;-77
2022/07/15 05:10:53;;;;;;;1.50;1.00;;;;;;;16.35;52.25;99283.81;5093852;28;40720;-75
2022/07/15 05:13:21;;;;;;;2.37;1.20;;;;;;;16.44;52.38;99291.13;5093999;28;41736;-74
2022/07/15 05:15:49;;;;;;;1.97;1.27;;;;;;;16.42;52.30;99269.00;5093359;28;43047;-75
2022/07/15 05:18:25;;;;;;;1.90;1.27;;;;;;;16.62;51.88;99284.31;5076762;28;41397;-74
2022/07/15 05:20:55;;;;;;;1.40;0.90;;;;;;;16.72;52.06;99292.44;5093445;28;41150;-77
2022/07/15 05:23:26;;;;;;;2.67;1.13;;;;;;;16.73;52.35;99284.31;5090749;28;42849;-79
2022/07/15 05:25:59;;;;;;;1.43;1.20;;;;;;;16.71;52.05;99266.66;5093546;28;42803;-77
2022/07/15 05:28:27;;;;;;;1.40;1.20;;;;;;;16.88;51.43;99295.59;5093970;28;42283;-76
2022/07/15 05:30:54;;;;;;;2.37;1.40;;;;;;;16.93;51.46;99298.75;5093632;28;40631;-74
2022/07/15 05:33:24;;;;;;;2.20;1.83;;;;;;;16.98;51.39;99303.72;5093685;28;42640;-75
2022/07/15 05:35:52;;;;;;;2.60;1.80;;;;;;;17.08;50.72;99310.00;5076056;28;42038;-77
2022/07/15 05:38:21;;;;;;;2.37;1.57;;;;;;;17.24;50.64;99305.09;5093417;28;42190;-75
2022/07/15 05:40:49;;;;;;;2.80;1.60;;;;;;;17.42;50.26;99308.94;5076386;28;39722;-74
2022/07/15 05:43:17;;;;;;;2.63;1.90;;;;;;;17.42;50.00;99295.53;5093539;28;40626;-78
2022/07/15 05:45:46;;;;;;;3.17;2.30;;;;;;;17.67;50.18;99315.78;5075417;28;42607;-72
2022/07/15 05:48:14;;;;;;;2.53;2.13;;;;;;;17.83;49.73;99318.00;5093249;28;42209;-79
2022/07/15 05:50:48;;;;;;;2.60;1.50;;;;;;;18.05;48.98;99304.47;5092888;28;40289;-77
2022/07/15 05:53:17;;;;;;;2.83;1.80;;;;;;;18.46;48.28;99327.69;5076166;28;42633;-78
2022/07/15 05:55:45;;;;;;;1.20;1.10;;;;;;;18.73;47.91;99324.44;5092955;28;43584;-80
2022/07/15 05:58:18;;;;;;;2.67;1.87;;;;;;;18.99;46.89;99331.03;5090076;28;43172;-74
2022/07/15 06:00:46;;;;;;;2.57;1.37;;;;;;;19.21;46.66;99329.94;5075676;28;40147;-78
2022/07/15 06:03:13;;;;;;;3.77;2.10;;;;;;;19.50;46.31;99334.53;5087660;28;42746;-84
2022/07/15 06:05:44;;;;;;;1.87;1.50;;;;;;;19.66;46.00;99335.66;5092787;28;43835;-79
2022/07/15 06:08:13;;;;;;;1.93;1.20;;;;;;;19.79;45.98;99334.50;5075143;28;42428;-78
2022/07/15 06:10:45;;;;;;;1.37;1.27;;;;;;;19.95;45.37;99345.53;5076149;28;40147;-80
2022/07/15 06:13:13;;;;;;;1.20;1.10;;;;;;;20.11;45.31;99348.50;5072031;28;40821;-76
2022/07/15 06:15:42;;;;;;;1.87;1.30;;;;;;;20.22;45.28;99348.34;5075464;28;43735;-78
2022/07/15 06:18:14;;;;;;;1.67;1.13;;;;;;;20.31;44.74;99352.84;5075256;28;41250;-77
2022/07/15 06:20:42;;;;;;;2.13;1.10;;;;;;;20.34;44.75;99357.94;5092175;28;39069;-77
2022/07/15 06:23:09;;;;;;;1.73;1.03;;;;;;;20.36;44.50;99355.97;5091713;28;41653;-77
2022/07/15 06:25:39;;;;;;;1.30;0.97;;;;;;;20.36;44.75;99357.81;5075239;28;43136;-78
2022/07/15 06:28:08;;;;;;;1.00;0.90;;;;;;;20.22;44.79;99353.72;5071659;28;42225;-78
2022/07/15 06:30:36;;;;;;;1.53;1.20;;;;;;;19.96;45.20;99313.16;5055129;28;40554;-74
2022/07/15 06:33:06;;;;;;;2.63;1.40;;;;;;;20.44;44.87;99358.78;5080333;28;41902;-78
2022/07/15 06:35:34;;;;;;;1.67;1.07;;;;;;;20.59;43.97;99361.84;5109078;28;41812;-76
2022/07/15 06:38:02;;;;;;;1.93;0.90;;;;;;;20.54;44.20;99360.59;5074851;28;43174;-74
2022/07/15 06:40:31;;;;;;;1.83;1.30;;;;;;;20.80;44.00;99369.69;5091897;28;40769;-79
2022/07/15 06:43:00;;;;;;;2.00;1.00;;;;;;;21.01;43.78;99375.72;5091681;28;41792;-75
2022/07/15 06:45:47;;;;;;;1.90;1.03;;;;;;;21.35;43.06;99369.75;5091285;28;44253;-73
2022/07/15 06:48:15;;;;;;;1.97;1.00;;;;;;;21.67;42.68;99380.00;5070672;28;42714;-82
2022/07/15 06:50:43;;;;;;;1.40;0.90;;;;;;;21.80;42.04;99375.91;5054842;28;38910;-79
2022/07/15 06:53:11;;;;;;;2.73;0.80;;;;;;;22.14;41.67;99383.31;5081421;28;41733;-77
2022/07/15 06:55:39;;;;;;;1.20;0.83;;;;;;;22.60;41.15;99379.44;5091867;28;42900;-78
2022/07/15 06:58:10;;;;;;;1.40;0.90;;;;;;;23.05;40.02;99390.00;5092555;28;42228;-78
2022/07/15 07:00:38;;;;;;;0.80;0.80;;;;;;;23.68;39.54;99386.00;5091466;28;40809;-79
2022/07/15 07:03:05;;;;;;;1.30;1.00;;;;;;;24.22;38.48;99379.13;5074076;28;42356;-73
2022/07/15 07:05:33;;;;;;;1.80;0.80;;;;;;;24.45;37.64;99385.53;5092062;28;42695;-75
2022/07/15 07:08:00;;;;;;;0.60;0.60;;;;;;;24.66;37.17;99393.97;5074414;28;43645;-83
2022/07/15 07:10:28;;;;;;;1.03;0.53;;;;;;;24.82;36.24;99403.06;5109129;28;39757;-79
2022/07/15 07:12:56;;;;;;;1.10;1.00;;;;;;;24.96;36.46;99403.25;5073883;28;40654;-75
2022/07/15 07:15:25;;;;;;;0.50;0.50;;;;;;;25.07;35.86;99407.44;5091057;28;42772;-75
2022/07/15 07:17:53;;;;;;;1.57;0.60;;;;;;;25.13;35.33;99411.28;5090694;28;44178;-78
2022/07/15 07:20:21;;;;;;;1.20;1.10;;;;;;;25.15;35.42;99407.41;5092515;28;40964;-80
2022/07/15 07:22:49;;;;;;;1.77;0.60;;;;;;;25.06;35.21;99394.91;5073684;28;42076;-77
2022/07/15 07:25:16;;;;;;;2.67;0.90;;;;;;;25.32;35.55;99403.59;5074355;28;43215;-76
2022/07/15 07:27:44;;;;;;;1.80;0.70;;;;;;;25.33;35.36;99390.88;5092270;28;42254;-81
2022/07/15 07:30:13;;;;;;;1.57;0.70;;;;;;;25.56;35.33;99407.22;5092540;28;39847;-79
2022/07/15 07:32:42;;;;;;;1.33;0.80;;;;;;;25.62;35.56;99392.94;5074231;28;40901;-78
2022/07/15 07:35:10;;;;;;;1.07;0.90;;;;;;;25.81;35.14;99411.50;5075139;28;42083;-80
2022/07/15 07:37:38;;;;;;;1.97;0.80;;;;;;;25.86;34.89;99402.78;5092312;28;42420;-75
2022/07/15 07:40:07;;;;;;;1.83;0.70;;;;;;;26.15;34.59;99402.06;5091692;28;40198;-80
2022/07/15 07:42:35;;;;;;;2.97;0.70;;;;;;;26.73;34.20;99413.09;5090869;28;40925;-76
2022/07/15 07:45:03;;;;;;;0.73;0.63;;;;;;;27.34;33.21;99421.94;5090784;28;42848;-80
2022/07/15 07:47:31;;;;;;;0.80;0.70;;;;;;;27.94;32.40;99420.81;5090470;28;42845;-76
2022/07/15 07:50:00;;;;;;;1.37;0.60;;;;;;;28.49;31.86;99421.97;5090759;28;41991;-80
2022/07/15 07:52:28;;;;;;;1.27;0.77;;;;;;;28.72;30.99;99425.31;5073137;28;41070;-77
2022/07/15 07:54:56;;;;;;;0.80;0.80;;;;;;;29.36;30.40;99430.56;5090354;28;43009;-77
2022/07/15 07:57:23;;;;;;;2.07;0.70;;;;;;;29.98;27.88;99444.06;5090691;28;41170;-72
2022/07/15 07:59:51;;;;;;;1.10;0.63;;;;;;;30.13;28.39;99446.63;5091717;28;39927;-78
2022/07/15 08:02:19;;;;;;;0.83;0.60;;;;;;;30.27;28.09;99437.41;5091478;28;43438;-77
2022/07/15 08:04:46;;;;;;;1.17;0.77;;;;;;;30.92;27.42;99443.94;5073644;28;42803;-83
2022/07/15 08:07:16;;;;;;;1.07;0.63;;;;;;;31.30;26.65;99451.47;5091480;28;42997;-83
2022/07/15 08:09:43;;;;;;;1.60;0.73;;;;;;;30.88;26.77;99448.16;5090276;28;39902;-71
2022/07/15 08:12:11;;;;;;;0.67;0.63;;;;;;;31.62;25.65;99445.03;5072867;28;43509;-70
2022/07/15 08:14:39;;;;;;;1.80;0.70;;;;;;;32.03;24.99;99462.97;5124918;27;43533;-76
2022/07/15 08:17:07;;;;;;;1.40;0.73;;;;;;;31.30;25.82;99455.03;5090539;28;42838;-72
2022/07/15 08:19:35;;;;;;;0.90;0.70;;;;;;;31.22;25.94;99438.03;5091964;28;40133;-79
2022/07/15 08:22:03;;;;;;;0.70;0.57;;;;;;;31.43;26.12;99441.31;5090547;28;41819;-79
2022/07/15 08:24:32;;;;;;;0.97;0.67;;;;;;;32.35;25.02;99448.28;5091046;28;42911;-73
2022/07/15 08:27:01;;;;;;;0.90;0.90;;;;;;;33.74;23.54;99461.50;5090450;28;42570;-75
2022/07/15 08:29:29;;;;;;;1.97;1.20;;;;;;;34.95;22.17;99465.84;5091617;28;40904;-79
2022/07/15 08:31:56;;;;;;;0.53;0.53;;;;;;;34.76;22.48;99458.75;5090769;28;40828;-78
2022/07/15 08:34:24;;;;;;;1.03;0.70;;;;;;;34.21;22.29;99450.72;5089822;28;43563;-80
2022/07/15 08:36:52;;;;;;;0.80;0.60;;;;;;;34.01;23.21;99450.16;5089988;28;41292;-74
2022/07/15 08:39:20;;;;;;;1.87;0.80;;;;;;;34.17;23.15;99457.75;5106009;28;40072;-73
2022/07/15 08:41:50;;;;;;;0.80;0.70;;;;;;;33.96;22.74;99458.28;5091249;28;41911;-73
2022/07/15 08:44:17;;;;;;;0.70;0.70;;;;;;;34.03;22.57;99451.59;5089905;28;43852;-74
2022/07/15 08:46:47;;;;;;;1.47;0.77;;;;;;;34.07;23.14;99449.22;5089808;28;42251;-76
2022/07/15 08:49:18;;;;;;;0.67;0.60;;;;;;;33.49;23.02;99452.50;5090289;28;39731;-76
2022/07/15 08:51:48;;;;;;;2.43;0.83;;;;;;;32.87;23.51;99448.94;5073124;28;41071;-74
2022/07/15 08:54:16;;;;;;;2.20;0.80;;;;;;;32.45;24.11;99456.00;5088618;28;41995;-76
2022/07/15 08:56:45;;;;;;;1.27;0.80;;;;;;;33.21;24.09;99452.16;5090755;28;43194;-75
2022/07/15 08:59:14;;;;;;;1.67;0.80;;;;;;;32.95;23.71;99453.28;5104700;27;39955;-75
2022/07/15 09:01:44;;;;;;;1.47;0.80;;;;;;;32.38;24.07;99456.06;5068456;28;40749;-75
2022/07/15 09:04:12;;;;;;;1.53;1.17;;;;;;;31.82;24.60;99446.88;5087262;28;43746;-75
2022/07/15 09:06:42;;;;;;;3.17;0.80;;;;;;;31.34;25.63;99436.31;5089000;28;43005;-75
2022/07/15 09:09:29;;;;;;;1.10;1.00;;;;;;;31.23;25.29;99434.22;5089913;28;39959;-75
2022/07/15 09:11:58;;;;;;;1.00;0.77;;;;;;;30.95;25.51;99438.03;5070874;28;41919;-75
2022/07/15 09:14:29;;;;;;;2.83;0.90;;;;;;;30.65;25.83;99436.84;5087882;28;43164;-75
2022/07/15 09:17:06;;;;;;;1.43;0.70;;;;;;;30.59;26.28;99432.19;5090548;28;42851;-78
2022/07/15 09:19:58;;;;;;;0.80;0.60;;;;;;;30.67;26.69;99426.50;5088029;28;40582;-73
2022/07/15 09:22:28;;;;;;;1.43;0.93;;;;;;;30.64;26.38;99426.94;5088919;28;42841;-75
2022/07/15 09:25:02;;;;;;;2.00;0.70;;;;;;;30.43;26.98;99427.94;5075329;28;43471;-75
2022/07/15 09:27:33;;;;;;;1.57;1.00;;;;;;;30.36;27.47;99421.66;5075002;28;40577;-77
2022/07/15 09:36:04;;;;;;;1.33;0.83;;;;;;;30.60;26.24;99439.34;5092224;28;41806;-76
2022/07/15 09:38:35;;;;;;;2.10;0.90;;;;;;;30.39;26.88;99428.59;5091891;28;42174;-75
2022/07/15 09:41:04;;;;;;;1.13;0.80;;;;;;;30.10;27.14;99433.38;5093949;28;39961;-74
2022/07/15 09:43:43;;;;;;;1.80;0.80;;;;;;;29.82;27.38;99429.91;5074859;28;41301;-75
2022/07/15 09:46:13;;;;;;;0.70;0.53;;;;;;;29.69;27.54;99429.88;5089495;28;43782;-75
2022/07/15 09:48:41;;;;;;;0.90;0.80;;;;;;;29.41;27.97;99422.66;5093294;28;42190;-75
2022/07/15 09:51:10;;;;;;;0.80;0.70;;;;;;;29.39;27.86;99430.19;5075559;28;38842;-75
2022/07/15 09:53:40;;;;;;;0.60;0.60;;;;;;;29.85;27.49;99426.78;5091737;28;41743;-73
2022/07/15 09:56:10;;;;;;;0.70;0.70;;;;;;;30.55;27.63;99414.50;5092126;28;42834;-75
2022/07/15 09:58:39;;;;;;;0.97;0.70;;;;;;;31.79;26.25;99434.44;5092196;28;43891;-76
2022/07/15 10:01:08;;;;;;;1.20;0.87;;;;;;;31.82;25.28;99446.88;5074676;28;40101;-75
2022/07/15 10:03:38;;;;;;;0.93;0.87;;;;;;;31.88;25.18;99449.59;5092702;28;41968;-75
2022/07/15 10:06:07;;;;;;;1.50;1.00;;;;;;;32.62;24.62;99450.81;5092971;28;43468;-74
2022/07/15 10:08:36;;;;;;;1.93;1.20;;;;;;;33.12;24.09;99451.63;5092588;28;43136;-75
2022/07/15 10:11:10;;;;;;;5.00;1.00;;;;;;;33.21;23.74;99421.97;5093138;28;40269;-76
2022/07/15 10:13:55;;;;;;;1.07;0.90;;;;;;;33.61;23.53;99450.69;5089549;28;42643;-74
2022/07/15 10:16:42;;;;;;;1.90;1.00;;;;;;;34.10;23.16;99454.28;5088726;28;43541;-73
2022/07/15 10:19:20;;;;;;;1.33;1.23;;;;;;;34.28;22.55;99461.63;5088369;28;42383;-73
2022/07/15 10:22:00;;;;;;;2.07;1.27;;;;;;;34.07;22.79;99457.47;5091532;28;39762;-73
2022/07/15 10:24:44;;;;;;;1.00;0.87;;;;;;;34.18;22.76;99456.69;5088789;28;41869;-73
2022/07/15 10:27:27;;;;;;;2.80;1.00;;;;;;;33.90;22.91;99462.78;5091202;28;42809;-73
2022/07/15 10:29:56;;;;;;;1.47;1.10;;;;;;;33.27;23.20;99459.50;5091265;28;42467;-73
2022/07/15 10:32:23;;;;;;;1.53;1.10;;;;;;;33.30;23.25;99453.56;5073633;28;40330;-73
2022/07/15 10:34:52;;;;;;;1.47;1.10;;;;;;;33.22;23.31;99451.94;5091114;28;40740;-74
2022/07/15 10:37:20;;;;;;;1.67;1.17;;;;;;;32.94;23.91;99457.91;5092350;28;42717;-74
2022/07/15 10:39:55;;;;;;;1.13;1.00;;;;;;;32.57;23.71;99454.22;5092496;28;42007;-73
2022/07/15 10:42:23;;;;;;;1.60;0.90;;;;;;;32.78;23.61;99450.25;5091397;28;39840;-74
2022/07/15 10:45:04;;;;;;;1.27;1.13;;;;;;;33.69;23.37;99447.59;5091415;28;42429;-76
2022/07/15 10:47:33;;;;;;;2.23;1.10;;;;;;;34.03;22.47;99453.50;5091243;28;42781;-76
2022/07/15 10:50:39;;;;;;;1.03;0.83;;;;;;;33.80;22.93;99444.09;5092639;28;42699;-75
2022/07/15 10:53:17;;;;;;;1.37;1.20;;;;;;;33.43;23.53;99443.28;5091779;28;39788;-77
2022/07/15 10:55:45;;;;;;;1.40;1.10;;;;;;;33.13;23.40;99434.94;5091238;28;41688;-78
2022/07/15 10:58:13;;;;;;;3.37;1.37;;;;;;;32.82;23.36;99435.88;5070325;28;41536;-76
2022/07/15 11:00:41;;;;;;;1.40;1.30;;;;;;;32.81;23.59;99433.34;5091916;28;42231;-77
2022/07/15 11:03:11;;;;;;;1.50;1.20;;;;;;;33.65;23.07;99416.16;5073675;28;38796;-79
2022/07/15 11:06:04;;;;;;;2.43;1.30;;;;;;;34.68;22.37;99437.91;5074277;28;40409;-76
2022/07/15 11:08:55;;;;;;;1.57;1.10;;;;;;;35.11;21.13;99432.09;5081699;28;43004;-81
2022/07/15 11:11:47;;;;;;;1.60;1.37;;;;;;;34.79;21.14;99439.03;5072954;28;41051;-78
2022/07/15 11:14:45;;;;;;;2.23;1.00;;;;;;;34.43;21.60;99429.03;5072040;28;41508;-81
2022/07/15 11:17:16;;;;;;;1.53;1.10;;;;;;;34.12;22.29;99430.97;5089867;28;40845;-80
2022/07/15 11:19:48;;;;;;;1.10;1.00;;;;;;;33.60;22.83;99413.28;5090349;28;42652;-83
2022/07/15 11:22:20;;;;;;;1.30;1.20;;;;;;;33.03;22.89;99417.28;5071353;28;42195;-79
2022/07/15 11:24:48;;;;;;;3.03;1.27;;;;;;;32.61;23.04;99428.03;5090002;28;40666;-80
2022/07/15 11:27:16;;;;;;;5.87;1.13;;;;;;;32.12;23.84;99418.66;5072877;28;40283;-86
2022/07/15 11:29:50;;;;;;;1.43;1.03;;;;;;;31.66;24.46;99421.66;5073486;28;42300;-79
2022/07/15 11:32:20;;;;;;;2.57;1.40;;;;;;;30.95;24.87;99364.19;5086558;28;41860;-81
2022/07/15 11:34:50;;;;;;;1.30;1.20;;;;;;;30.98;24.79;99410.25;5073236;28;39105;-83
2022/07/15 11:37:24;;;;;;;3.10;1.20;;;;;;;30.89;25.05;99411.56;5056582;28;41763;-83
2022/07/15 11:40:08;;;;;;;1.67;1.20;;;;;;;30.99;25.42;99411.94;5122478;27;43604;-77
2022/07/15 11:45:34;;;;;;;1.27;0.97;;;;;;;31.48;25.10;99410.56;5074237;28;40148;-77
2022/07/15 11:48:06;;;;;;;1.30;1.20;;;;;;;32.57;24.60;99409.47;5087206;28;41719;-78
2022/07/15 11:50:34;;;;;;;1.67;1.27;;;;;;;33.29;23.59;99407.94;5090165;28;43804;-86
2022/07/15 11:53:12;;;;;;;2.53;1.40;;;;;;;33.95;22.43;99415.38;5088568;28;41911;-80
2022/07/15 11:55:49;;;;;;;1.40;1.30;;;;;;;35.76;21.69;99415.34;5090444;28;39693;-80
2022/07/15 11:58:26;;;;;;;1.40;1.20;;;;;;;37.63;20.31;99408.47;5089013;28;42106;-87
2022/07/15 12:00:54;;;;;;;1.40;1.30;;;;;;;39.12;18.68;99424.25;5071960;28;43069;-79